createdAt,value
2022-12-01T00:01:24.303Z,32.10
2022-12-01T00:03:51.302Z,33.07
2022-12-01T00:06:20.763Z,30.80
2022-12-01T00:09:09.384Z,32.03
2022-12-01T00:11:38.189Z,30.50
2022-12-01T00:14:05.756Z,30.53
2022-12-01T00:16:33.269Z,31.57
2022-12-01T00:19:00.490Z,30.97
2022-12-01T00:21:28.475Z,33.30
2022-12-01T00:23:57.616Z,31.30
2022-12-01T00:26:25.800Z,32.13
2022-12-01T00:28:58.107Z,30.40
2022-12-01T00:31:26.107Z,29.63
2022-12-01T00:33:53.504Z,31.93
2022-12-01T00:36:21.289Z,31.23
2022-12-01T00:38:52.241Z,30.80
2022-12-01T00:41:19.200Z,32.83
2022-12-01T00:43:46.079Z,30.07
2022-12-01T00:46:13.050Z,32.30
2022-12-01T00:48:40.074Z,27.53
2022-12-01T00:51:07.081Z,28.70
2022-12-01T00:53:33.997Z,31.47
2022-12-01T00:56:00.977Z,29.60
2022-12-01T00:58:27.876Z,31.47
2022-12-01T01:01:00.314Z,27.50
2022-12-01T01:03:28.815Z,28.70
2022-12-01T01:05:55.725Z,29.37
2022-12-01T01:08:22.682Z,27.27
2022-12-01T01:10:49.964Z,28.47
2022-12-01T01:13:16.865Z,29.20
2022-12-01T01:15:43.805Z,26.47
2022-12-01T01:18:12.151Z,25.67
2022-12-01T01:20:39.097Z,26.40
2022-12-01T01:23:06.019Z,22.27
2022-12-01T01:25:33.609Z,29.13
2022-12-01T01:28:00.734Z,26.67
2022-12-01T01:30:28.096Z,26.93
2022-12-01T01:32:55.151Z,23.17
2022-12-01T01:35:22.301Z,28.60
2022-12-01T01:37:50.956Z,27.47
2022-12-01T01:40:18.786Z,28.37
2022-12-01T01:42:45.932Z,26.03
2022-12-01T01:45:25.433Z,28.63
2022-12-01T01:47:53.931Z,29.57
2022-12-01T01:50:25.218Z,26.90
2022-12-01T01:55:34.064Z,26.83
2022-12-01T01:58:03.228Z,27.47
2022-12-01T02:00:30.273Z,28.23
2022-12-01T02:02:57.922Z,24.60
2022-12-01T02:05:35.887Z,23.80
2022-12-01T02:08:04.617Z,26.53
2022-12-01T02:10:43.360Z,25.83
2022-12-01T02:13:44.154Z,26.30
2022-12-01T02:16:39.033Z,28.90
2022-12-01T02:19:57.822Z,26.20
2022-12-01T02:23:08.086Z,27.00
2022-12-01T02:26:08.979Z,24.80
2022-12-01T02:29:00.375Z,27.50
2022-12-01T02:31:37.868Z,28.90
2022-12-01T02:34:51.086Z,30.60
2022-12-01T02:37:31.774Z,26.90
2022-12-01T02:40:20.839Z,31.00
2022-12-01T02:43:18.407Z,29.47
2022-12-01T02:45:56.237Z,29.80
2022-12-01T02:48:35.925Z,28.53
2022-12-01T02:51:28.996Z,27.03
2022-12-01T02:53:58.660Z,26.07
2022-12-01T02:56:26.092Z,27.90
2022-12-01T02:58:53.604Z,26.80
2022-12-01T03:01:50.563Z,25.77
2022-12-01T03:04:56.768Z,20.43
2022-12-01T03:07:56.111Z,27.97
2022-12-01T03:10:30.449Z,29.17
2022-12-01T03:13:24.420Z,29.83
2022-12-01T03:16:15.619Z,27.63
2022-12-01T03:19:00.098Z,29.90
2022-12-01T03:21:40.765Z,28.70
2022-12-01T03:24:17.757Z,30.10
2022-12-01T03:26:52.490Z,29.67
2022-12-01T03:29:31.603Z,33.33
2022-12-01T03:32:05.803Z,31.70
2022-12-01T03:35:09.021Z,29.50
2022-12-01T03:37:43.470Z,34.43
2022-12-01T03:40:18.136Z,30.73
2022-12-01T03:42:55.347Z,29.40
2022-12-01T03:45:35.417Z,32.67
2022-12-01T03:48:02.800Z,28.27
2022-12-01T03:50:41.396Z,29.07
2022-12-01T03:53:19.600Z,28.40
2022-12-01T03:55:57.508Z,29.40
2022-12-01T03:58:51.163Z,29.80
2022-12-01T04:01:18.300Z,30.60
2022-12-01T04:03:47.533Z,32.70
2022-12-01T04:06:15.167Z,35.40
2022-12-01T04:08:42.069Z,32.60
2022-12-01T04:11:32.426Z,34.80
2022-12-01T04:13:59.673Z,33.47
2022-12-01T04:16:26.637Z,31.37
2022-12-01T04:18:53.576Z,32.23
2022-12-01T04:21:20.515Z,31.70
2022-12-01T04:24:02.610Z,30.23
2022-12-01T04:26:36.438Z,31.93
2022-12-01T04:29:10.124Z,32.43
2022-12-01T04:31:38.034Z,30.13
2022-12-01T04:34:05.445Z,33.30
2022-12-01T04:36:35.277Z,33.50
2022-12-01T04:39:03.379Z,35.70
2022-12-01T04:41:30.463Z,33.47
2022-12-01T04:43:57.633Z,34.63
2022-12-01T04:46:25.490Z,36.57
2022-12-01T04:48:52.492Z,33.03
2022-12-01T04:51:19.724Z,34.40
2022-12-01T04:53:46.702Z,34.97
2022-12-01T04:56:13.649Z,35.03
2022-12-01T04:58:40.761Z,34.90
2022-12-01T05:01:11.453Z,31.00
2022-12-01T05:03:40.282Z,33.27
2022-12-01T05:06:13.985Z,33.50
2022-12-01T05:08:41.529Z,34.47
2022-12-01T05:11:13.341Z,34.77
2022-12-01T05:13:43.532Z,34.87
2022-12-01T05:16:22.703Z,36.07
2022-12-01T05:19:15.540Z,32.37
2022-12-01T05:21:44.535Z,34.70
2022-12-01T05:24:13.110Z,34.70
2022-12-01T05:26:41.684Z,33.70
2022-12-01T05:29:10.704Z,34.70
2022-12-01T05:31:38.038Z,31.07
2022-12-01T05:34:05.091Z,34.83
2022-12-01T05:36:32.844Z,36.83
2022-12-01T05:38:59.772Z,29.60
2022-12-01T05:41:26.686Z,35.40
2022-12-01T05:43:53.613Z,31.77
2022-12-01T05:46:20.594Z,35.60
2022-12-01T05:48:47.588Z,36.97
2022-12-01T05:51:16.842Z,35.70
2022-12-01T05:53:44.685Z,34.83
2022-12-01T05:56:12.218Z,37.50
2022-12-01T05:58:39.201Z,34.73
2022-12-01T06:01:06.188Z,26.47
2022-12-01T06:03:33.343Z,33.50
2022-12-01T06:06:00.807Z,35.00
2022-12-01T06:08:27.840Z,34.67
2022-12-01T06:10:54.822Z,32.33
2022-12-01T06:13:21.818Z,34.50
2022-12-01T06:16:05.159Z,33.77
2022-12-01T06:18:35.801Z,32.53
2022-12-01T06:21:07.267Z,34.07
2022-12-01T06:23:34.616Z,32.37
2022-12-01T06:26:01.961Z,35.83
2022-12-01T06:28:28.896Z,34.80
2022-12-01T06:31:02.559Z,35.30
2022-12-01T06:33:30.117Z,34.03
2022-12-01T06:36:02.274Z,35.63
2022-12-01T06:38:34.306Z,37.90
2022-12-01T06:41:02.154Z,34.87
2022-12-01T06:43:29.439Z,36.53
2022-12-01T06:46:01.666Z,37.70
2022-12-01T06:48:30.093Z,35.90
2022-12-01T06:51:02.239Z,34.10
2022-12-01T06:53:29.733Z,35.63
2022-12-01T06:56:01.659Z,35.33
2022-12-01T06:58:29.269Z,37.47
2022-12-01T07:00:57.458Z,35.80
2022-12-01T07:03:24.442Z,32.90
2022-12-01T07:06:00.525Z,35.23
2022-12-01T07:08:29.040Z,37.20
2022-12-01T07:11:09.171Z,40.00
2022-12-01T07:13:36.431Z,34.57
2022-12-01T07:16:04.260Z,33.83
2022-12-01T07:18:32.161Z,37.10
2022-12-01T07:21:04.971Z,39.70
2022-12-01T07:23:32.824Z,39.53
2022-12-01T07:26:06.167Z,37.13
2022-12-01T07:28:33.593Z,36.77
2022-12-01T07:31:18.454Z,39.57
2022-12-01T07:33:46.063Z,41.77
2022-12-01T07:36:14.801Z,41.73
2022-12-01T07:38:42.185Z,45.30
2022-12-01T07:41:15.669Z,43.17
2022-12-01T07:43:43.265Z,46.77
2022-12-01T07:46:29.959Z,45.80
2022-12-01T07:48:57.772Z,41.40
2022-12-01T07:51:26.128Z,42.50
2022-12-01T07:53:54.328Z,42.53
2022-12-01T07:56:23.058Z,45.90
2022-12-01T07:58:50.198Z,48.03
2022-12-01T08:01:20.730Z,44.30
2022-12-01T08:03:53.833Z,42.07
2022-12-01T08:06:22.094Z,44.13
2022-12-01T08:08:49.996Z,44.87
2022-12-01T08:11:26.617Z,48.07
2022-12-01T08:13:54.024Z,43.47
2022-12-01T08:16:23.508Z,44.43
2022-12-01T08:18:51.168Z,44.80
2022-12-01T08:21:20.999Z,45.97
2022-12-01T08:23:49.008Z,41.37
2022-12-01T08:26:18.938Z,45.47
2022-12-01T08:28:46.652Z,47.70
2022-12-01T08:31:24.475Z,44.17
2022-12-01T08:33:52.348Z,51.00
2022-12-01T08:36:21.285Z,46.00
2022-12-01T08:38:53.827Z,47.80
2022-12-01T08:41:21.609Z,48.60
2022-12-01T08:44:03.749Z,47.67
2022-12-01T08:46:35.480Z,49.37
2022-12-01T08:49:04.953Z,48.03
2022-12-01T08:51:32.664Z,47.43
2022-12-01T08:54:00.852Z,45.47
2022-12-01T08:56:35.603Z,46.63
2022-12-01T08:59:03.761Z,47.50
2022-12-01T09:01:30.831Z,47.80
2022-12-01T09:04:06.011Z,45.17
2022-12-01T09:06:39.892Z,45.50
2022-12-01T09:09:09.048Z,45.67
2022-12-01T09:11:35.933Z,43.27
2022-12-01T09:14:02.979Z,41.77
2022-12-01T09:16:30.089Z,42.50
2022-12-01T09:18:57.092Z,43.50
2022-12-01T09:21:27.532Z,42.00
2022-12-01T09:23:54.986Z,45.97
2022-12-01T09:26:22.486Z,43.03
2022-12-01T09:28:54.867Z,45.23
2022-12-01T09:31:25.385Z,45.53
2022-12-01T09:34:01.572Z,46.80
2022-12-01T09:36:30.734Z,46.10
2022-12-01T09:38:58.135Z,46.17
2022-12-01T09:41:57.984Z,49.97
2022-12-01T09:44:43.421Z,46.40
2022-12-01T09:47:37.418Z,48.67
2022-12-01T09:50:25.205Z,48.73
2022-12-01T09:53:07.930Z,49.20
2022-12-01T09:55:35.959Z,44.97
2022-12-01T09:58:05.690Z,47.30
2022-12-01T10:00:42.808Z,46.53
2022-12-01T10:03:16.328Z,49.63
2022-12-01T10:06:32.101Z,45.50
2022-12-01T10:09:15.917Z,47.70
2022-12-01T10:11:44.825Z,46.17
2022-12-01T10:14:20.879Z,44.13
2022-12-01T10:17:05.355Z,47.63
2022-12-01T10:19:40.037Z,46.23
2022-12-01T10:22:18.484Z,43.67
2022-12-01T10:25:04.604Z,42.97
2022-12-01T10:28:31.565Z,43.47
2022-12-01T10:31:30.426Z,44.20
2022-12-01T10:34:08.253Z,43.93
2022-12-01T10:36:35.198Z,37.00
2022-12-01T10:39:05.017Z,40.03
2022-12-01T10:41:35.896Z,43.50
2022-12-01T10:44:05.859Z,42.03
2022-12-01T10:46:52.679Z,43.90
2022-12-01T10:49:20.769Z,45.77
2022-12-01T10:51:52.319Z,42.87
2022-12-01T10:54:20.556Z,42.97
2022-12-01T10:56:51.096Z,46.27
2022-12-01T10:59:32.966Z,41.10
2022-12-01T11:02:02.967Z,43.60
2022-12-01T11:04:47.537Z,42.03
2022-12-01T11:07:28.837Z,45.17
2022-12-01T11:10:22.923Z,45.03
2022-12-01T11:12:57.920Z,43.07
2022-12-01T11:15:29.331Z,43.83
2022-12-01T11:18:02.024Z,43.30
2022-12-01T11:20:39.728Z,39.90
2022-12-01T11:23:20.615Z,40.20
2022-12-01T11:25:56.304Z,39.47
2022-12-01T11:28:23.644Z,41.10
2022-12-01T11:30:58.024Z,40.50
2022-12-01T11:33:25.949Z,36.30
2022-12-01T11:35:53.095Z,42.87
2022-12-01T11:38:30.744Z,39.60
2022-12-01T11:40:58.698Z,41.63
2022-12-01T11:43:31.846Z,40.00
2022-12-01T11:46:03.694Z,40.20
2022-12-01T11:48:36.576Z,39.07
2022-12-01T11:51:16.196Z,36.67
2022-12-01T11:53:44.410Z,36.17
2022-12-01T11:56:24.068Z,39.53
2022-12-01T11:59:05.984Z,38.40
2022-12-01T12:02:00.295Z,36.40
2022-12-01T12:04:55.674Z,41.73
2022-12-01T12:08:22.587Z,35.53
2022-12-01T12:11:38.660Z,35.33
2022-12-01T12:14:26.556Z,36.00
2022-12-01T12:17:24.812Z,37.57
2022-12-01T12:20:34.081Z,34.70
2022-12-01T12:23:50.845Z,34.73
2022-12-01T12:26:29.786Z,37.80
2022-12-01T12:29:37.252Z,32.20
2022-12-01T12:32:28.101Z,36.70
2022-12-01T12:35:58.307Z,37.37
2022-12-01T12:38:59.087Z,35.27
2022-12-01T12:41:44.140Z,35.17
2022-12-01T12:44:37.236Z,35.87
2022-12-01T12:47:07.315Z,33.17
2022-12-01T12:50:07.342Z,33.70
2022-12-01T12:52:43.182Z,33.00
2022-12-01T12:55:13.320Z,33.17
2022-12-01T12:57:52.390Z,29.97
2022-12-01T13:00:25.985Z,29.20
2022-12-01T13:03:13.343Z,32.23
2022-12-01T13:05:50.648Z,32.70
2022-12-01T13:08:22.377Z,31.30
2022-12-01T13:11:08.262Z,28.40
2022-12-01T13:13:49.107Z,32.07
2022-12-01T13:16:26.317Z,31.20
2022-12-01T13:19:27.358Z,31.17
2022-12-01T13:21:56.062Z,28.87
2022-12-01T13:24:28.887Z,30.93
2022-12-01T13:27:14.916Z,28.77
2022-12-01T13:29:49.200Z,30.53
2022-12-01T13:32:43.160Z,30.07
2022-12-01T13:35:36.996Z,28.23
2022-12-01T13:38:21.809Z,28.30
2022-12-01T13:40:49.409Z,30.00
2022-12-01T13:43:21.872Z,27.53
2022-12-01T13:45:50.179Z,31.80
2022-12-01T13:48:55.507Z,29.77
2022-12-01T13:51:23.475Z,29.90
2022-12-01T13:54:34.664Z,28.30
2022-12-01T13:57:12.053Z,30.93
2022-12-01T14:00:02.644Z,27.87
2022-12-01T14:02:35.895Z,31.50
2022-12-01T14:05:24.841Z,30.67
2022-12-01T14:07:55.077Z,29.73
2022-12-01T14:10:31.851Z,29.93
2022-12-01T14:13:05.762Z,28.53
2022-12-01T14:15:42.372Z,30.20
2022-12-01T14:18:18.595Z,30.57
2022-12-01T14:20:47.493Z,30.43
2022-12-01T14:23:28.947Z,31.67
2022-12-01T14:26:18.752Z,29.23
2022-12-01T14:29:00.984Z,27.10
2022-12-01T14:31:33.928Z,30.50
2022-12-01T14:34:18.876Z,28.17
2022-12-01T14:36:58.082Z,26.00
2022-12-01T14:39:44.685Z,25.27
2022-12-01T14:42:11.510Z,27.60
2022-12-01T14:44:56.134Z,25.67
2022-12-01T14:47:28.833Z,28.10
2022-12-01T14:50:24.879Z,27.77
2022-12-01T14:53:04.360Z,28.57
2022-12-01T14:55:42.848Z,25.63
2022-12-01T14:58:22.706Z,28.33
2022-12-01T15:01:13.067Z,29.07
2022-12-01T15:03:54.897Z,27.17
2022-12-01T15:06:25.228Z,26.30
2022-12-01T15:12:02.300Z,26.37
2022-12-01T15:14:34.619Z,28.20
2022-12-01T15:17:05.236Z,28.60
2022-12-01T15:19:42.084Z,27.43
2022-12-01T15:22:17.390Z,28.53
2022-12-01T15:24:45.084Z,28.87
2022-12-01T15:27:43.115Z,27.93
2022-12-01T15:30:15.610Z,28.03
2022-12-01T15:32:45.881Z,24.30
2022-12-01T15:35:22.219Z,30.30
2022-12-01T15:37:50.579Z,29.13
2022-12-01T15:43:35.165Z,27.43
2022-12-01T15:46:15.694Z,31.10
2022-12-01T15:48:44.047Z,27.40
2022-12-01T15:51:31.229Z,30.87
2022-12-01T15:54:02.234Z,27.67
2022-12-01T15:56:38.854Z,29.20
2022-12-01T15:59:32.161Z,28.53
2022-12-01T16:01:59.627Z,27.40
2022-12-01T16:04:32.254Z,29.33
2022-12-01T16:07:07.191Z,28.93
2022-12-01T16:09:43.534Z,29.83
2022-12-01T16:12:16.244Z,30.13
2022-12-01T16:15:01.363Z,30.70
2022-12-01T16:17:48.324Z,27.77
2022-12-01T16:20:23.449Z,29.30
2022-12-01T16:23:01.176Z,31.20
2022-12-01T16:25:37.245Z,31.20
2022-12-01T16:28:07.694Z,32.20
2022-12-01T16:30:40.056Z,31.30
2022-12-01T16:33:22.229Z,31.90
2022-12-01T16:35:50.595Z,34.50
2022-12-01T16:38:22.461Z,33.60
2022-12-01T16:40:53.245Z,25.37
2022-12-01T16:43:24.545Z,25.40
2022-12-01T16:46:01.126Z,32.40
2022-12-01T16:48:28.148Z,31.37
2022-12-01T16:50:55.805Z,31.20
2022-12-01T16:53:22.753Z,30.87
2022-12-01T16:55:54.887Z,30.57
2022-12-01T16:58:22.407Z,29.13
2022-12-01T17:00:52.715Z,33.80
2022-12-01T17:03:28.503Z,32.67
2022-12-01T17:05:56.049Z,31.87
2022-12-01T17:08:23.187Z,32.87
2022-12-01T17:10:51.507Z,35.00
2022-12-01T17:13:23.356Z,33.60
2022-12-01T17:15:53.701Z,31.23
2022-12-01T17:18:22.872Z,30.40
2022-12-01T17:21:02.227Z,29.63
2022-12-01T17:23:29.769Z,33.27
2022-12-01T17:25:56.785Z,34.23
2022-12-01T17:28:23.787Z,33.87
2022-12-01T17:30:50.958Z,31.07
2022-12-01T17:33:18.167Z,31.83
2022-12-01T17:35:45.219Z,34.47
2022-12-01T17:38:12.187Z,31.03
2022-12-01T17:40:39.286Z,33.73
2022-12-01T17:43:08.276Z,31.93
2022-12-01T17:45:35.320Z,31.53
2022-12-01T17:48:02.295Z,34.17
2022-12-01T17:50:29.284Z,32.97
2022-12-01T17:52:56.232Z,34.47
2022-12-01T17:55:23.253Z,34.10
2022-12-01T17:57:50.219Z,31.87
2022-12-01T18:00:17.833Z,33.50
2022-12-01T18:02:47.405Z,34.20
2022-12-01T18:05:14.727Z,32.40
2022-12-01T18:07:41.916Z,32.10
2022-12-01T18:10:09.570Z,33.53
2022-12-01T18:12:36.559Z,30.03
2022-12-01T18:15:05.501Z,31.10
2022-12-01T18:17:32.471Z,32.43
2022-12-01T18:19:59.479Z,32.37
2022-12-01T18:22:26.465Z,31.80
2022-12-01T18:24:53.550Z,33.60
2022-12-01T18:27:20.601Z,31.60
2022-12-01T18:29:48.030Z,31.37
2022-12-01T18:32:15.548Z,29.40
2022-12-01T18:34:43.145Z,31.47
2022-12-01T18:37:10.112Z,30.73
2022-12-01T18:39:37.169Z,30.60
2022-12-01T18:42:04.533Z,29.87
2022-12-01T18:44:31.860Z,29.40
2022-12-01T18:46:59.228Z,31.20
2022-12-01T18:49:26.327Z,32.40
2022-12-01T18:51:53.280Z,27.37
2022-12-01T18:54:20.277Z,30.83
2022-12-01T18:56:51.475Z,31.53
2022-12-01T18:59:18.698Z,29.53
2022-12-01T19:01:48.556Z,30.50
2022-12-01T19:04:16.646Z,30.37
2022-12-01T19:06:45.685Z,29.27
2022-12-01T19:09:15.815Z,30.33
2022-12-01T19:11:43.334Z,33.00
2022-12-01T19:14:19.686Z,32.07
2022-12-01T19:16:47.055Z,28.60
2022-12-01T19:19:14.312Z,31.90
2022-12-01T19:21:42.082Z,31.20
2022-12-01T19:24:09.135Z,29.90
2022-12-01T19:26:36.092Z,30.47
2022-12-01T19:29:03.881Z,32.73
2022-12-01T19:31:31.042Z,32.07
2022-12-01T19:33:58.150Z,30.53
2022-12-01T19:36:27.984Z,29.27
2022-12-01T19:38:57.980Z,27.97
2022-12-01T19:41:25.606Z,30.80
2022-12-01T19:43:53.935Z,27.67
2022-12-01T19:46:23.896Z,30.23
2022-12-01T19:48:57.856Z,26.90
2022-12-01T19:51:28.717Z,26.27
2022-12-01T19:53:56.109Z,29.97
2022-12-01T19:56:24.203Z,29.67
2022-12-01T19:58:51.332Z,30.07
2022-12-01T20:01:20.130Z,29.43
2022-12-01T20:03:53.124Z,30.53
2022-12-01T20:06:24.474Z,29.83
2022-12-01T20:08:52.548Z,28.23
2022-12-01T20:11:19.629Z,28.83
2022-12-01T20:13:48.824Z,28.80
2022-12-01T20:16:23.128Z,28.70
2022-12-01T20:18:51.930Z,29.03
2022-12-01T20:21:28.998Z,28.90
2022-12-01T20:24:05.005Z,29.50
2022-12-01T20:26:56.972Z,28.87
2022-12-01T20:29:28.886Z,27.50
2022-12-01T20:31:58.879Z,29.80
2022-12-01T20:34:30.943Z,24.80
2022-12-01T20:36:58.401Z,28.90
2022-12-01T20:39:25.573Z,32.17
2022-12-01T20:41:52.768Z,29.50
2022-12-01T20:44:20.111Z,31.20
2022-12-01T20:46:47.727Z,30.23
2022-12-01T20:49:17.120Z,29.97
2022-12-01T20:51:44.570Z,29.43
2022-12-01T20:54:30.268Z,28.20
2022-12-01T20:56:58.704Z,27.50
2022-12-01T20:59:26.221Z,29.33
2022-12-01T21:01:53.508Z,28.93
2022-12-01T21:04:20.601Z,28.17
2022-12-01T21:06:50.043Z,30.00
2022-12-01T21:09:18.056Z,29.90
2022-12-01T21:12:09.508Z,28.37
2022-12-01T21:14:42.441Z,27.33
2022-12-01T21:17:34.696Z,30.40
2022-12-01T21:20:22.106Z,30.30
2022-12-01T21:22:53.748Z,29.43
2022-12-01T21:25:24.583Z,28.87
2022-12-01T21:27:52.350Z,29.53
2022-12-01T21:30:28.726Z,28.03
2022-12-01T21:33:16.954Z,29.27
2022-12-01T21:35:43.923Z,30.30
2022-12-01T21:38:20.420Z,29.67
2022-12-01T21:40:49.391Z,30.07
2022-12-01T21:43:22.852Z,30.03
2022-12-01T21:46:11.065Z,27.57
2022-12-01T21:48:38.167Z,28.63
2022-12-01T21:51:31.672Z,28.33
2022-12-01T21:53:58.643Z,30.33
2022-12-01T21:56:31.736Z,27.63
2022-12-01T21:59:14.047Z,29.50
2022-12-01T22:01:41.235Z,27.27
2022-12-01T22:04:31.508Z,29.60
2022-12-01T22:06:58.686Z,28.20
2022-12-01T22:09:29.731Z,27.97
2022-12-01T22:12:10.546Z,28.70
2022-12-01T22:14:37.570Z,28.50
2022-12-01T22:17:07.480Z,27.80
2022-12-01T22:19:38.869Z,27.73
2022-12-01T22:22:22.966Z,26.27
2022-12-01T22:24:59.333Z,26.10
2022-12-01T22:27:37.008Z,26.23
2022-12-01T22:30:07.343Z,29.97
2022-12-01T22:32:38.491Z,27.87
2022-12-01T22:35:24.643Z,28.10
2022-12-01T22:37:59.404Z,27.17
2022-12-01T22:40:42.671Z,26.90
2022-12-01T22:43:23.319Z,27.20
2022-12-01T22:46:32.487Z,27.90
2022-12-01T22:49:22.292Z,27.77
2022-12-01T22:52:00.505Z,27.70
2022-12-01T22:54:53.731Z,25.40
2022-12-01T22:57:33.163Z,24.30
2022-12-01T23:00:21.417Z,25.33
2022-12-01T23:02:49.921Z,26.83
2022-12-01T23:05:28.058Z,27.60
2022-12-01T23:07:56.697Z,28.47
2022-12-01T23:10:26.107Z,27.73
2022-12-01T23:12:55.804Z,25.93
2022-12-01T23:15:40.932Z,27.67
2022-12-01T23:18:29.861Z,26.47
2022-12-01T23:21:02.248Z,28.03
2022-12-01T23:23:37.271Z,25.93
2022-12-01T23:26:08.709Z,26.60
2022-12-01T23:28:38.655Z,27.13
2022-12-01T23:31:06.129Z,25.53
2022-12-01T23:33:34.920Z,27.33
2022-12-01T23:36:27.900Z,26.60
2022-12-01T23:39:10.575Z,25.13
2022-12-01T23:41:38.839Z,28.23
2022-12-01T23:44:34.698Z,27.47
2022-12-01T23:47:02.299Z,25.17
2022-12-01T23:49:35.509Z,29.00
2022-12-01T23:52:04.023Z,28.57
2022-12-01T23:54:34.651Z,27.00
2022-12-01T23:57:21.845Z,24.83
2022-12-01T23:59:54.993Z,24.73
